• Join FlightAware (Why Join?)
  • Login
  • US Flag 
03:13PM EDT


 

Airport Tracker/Info


-or-


 

Live Flight TrackerFlight Track Log ✈ DAL6196 ✈ 20-Dec-2013 ✈ KLGA - KGSO

Flight Track Log - Related Links

Times and Time Zones

All times are in EST time to prevent confusion due to time zone crossing. See the DAL6196 flight status page for this flight to view local times or setup timezone preferences in your user account.

Time Position Orientation Groundspeed Altitude Reporting Facility
EST Latitude Longitude Course Direction KTS MPH feet Rate Location/Type
11:53AM 40.7667 -73.8500 143° Southeast 157 181 800  Level New York TRACON
11:54AM 40.7333 -73.8167 143° Southeast 190 219 2,400 2,220 Climbing New York TRACON
11:55AM 40.7667 -73.7500 57° Northeast 257 296 5,100 1,800 Climbing New York TRACON
11:56AM 40.8333 -73.6833 37° Northeast 297 342 6,000 1,380 Climbing New York TRACON
11:57AM 40.8833 -73.7500 315° West 254 292 8,000 2,340 Climbing New York TRACON
11:58AM 40.9333 -73.8167 315° West 256 295 11,000 2,220 Climbing New York TRACON
11:59AM 40.9333 -73.9167 270° West 264 304 12,300 1,860 Climbing New York TRACON
12:00PM 40.9000 -74.0000 242° Southwest 286 329 14,600 1,320 Climbing New York TRACON
12:01PM 40.8500 -74.1000 237° Southwest 326 375 15,000 360 Climbing New York TRACON
12:03PM 40.7111 -74.2917 226° Southwest 353 406 15,800 600 Climbing New York Center
12:04PM 40.6364 -74.3536 212° Southwest 365 420 17,000 1,140 Climbing New York Center
12:05PM 40.5867 -74.4819 243° Southwest 353 406 18,100 1,260 Climbing New York Center
12:06PM 40.5311 -74.5911 236° Southwest 359 413 19,600 1,440 Climbing New York Center
12:07PM 40.4669 -74.6994 232° Southwest 371 427 21,100 1,380 Climbing New York Center
12:08PM 40.4069 -74.8103 235° Southwest 376 433 22,400 1,200 Climbing New York Center
12:09PM 40.3447 -74.9211 234° Southwest 376 433 23,500 1,020 Climbing New York Center
12:10PM 40.2783 -75.0314 232° Southwest 376 433 24,500 960 Climbing New York Center
12:11PM 40.2242 -75.1422 237° Southwest 389 448 25,500 960 Climbing New York Center
12:12PM 40.1758 -75.2669 243° Southwest 389 448 26,500 900 Climbing New York Center
12:13PM 40.1231 -75.3911 241° Southwest 389 448 27,400 1,020 Climbing New York Center
12:14PM 40.0481 -75.4972 227° Southwest 395 455 28,600 1,200 Climbing New York Center
12:15PM 39.9750 -75.6006 227° Southwest 400 460 29,900 1,140 Climbing New York Center
12:16PM 39.9019 -75.7039 227° Southwest 400 460 30,900 960 Climbing New York Center
12:17PM 39.8372 -75.8075 231° Southwest 394 453 31,900 960 Climbing New York Center
12:18PM 39.7719 -75.9136 231° Southwest 389 448 32,900 600 Climbing New York Center
12:20PM 39.6247 -76.1439 230° Southwest 379 436 34,000 300 Climbing Washington Center
12:21PM 39.5533 -76.2536 230° Southwest 384 442 34,000  Level Washington Center
12:22PM 39.4842 -76.3606 230° Southwest 392 451 34,000  Level Washington Center
12:23PM 39.4144 -76.4728 231° Southwest 400 460 34,000  Level Washington Center
12:24PM 39.3472 -76.5683 228° Southwest 400 460 34,000  Level Washington Center
12:25PM 39.2794 -76.6747 231° Southwest 400 460 34,000  Level Washington Center
12:26PM 39.2139 -76.7783 231° Southwest 400 460 34,000  Level Washington Center
12:27PM 39.1461 -76.8842 230° Southwest 395 455 34,000  Level Washington Center
12:28PM 39.0886 -76.9956 236° Southwest 395 455 34,000 -60 Level Washington Center
12:29PM 39.0622 -77.1208 255° West 371 427 33,900 -600 Descending Washington Center
12:30PM 39.0311 -77.2511 253° West 371 427 32,800 -1,080 Descending Washington Center
12:31PM 38.9814 -77.3781 243° Southwest 387 445 31,800 -1,020 Descending Washington Center
12:32PM 38.9067 -77.4883 229° Southwest 407 468 30,800 -900 Descending Washington Center
12:33PM 38.7992 -77.5761 212° Southwest 407 468 30,000 -420 Descending Washington Center
12:34PM 38.6997 -77.6478 209° Southwest 418 481 30,000  Level Washington Center
12:35PM 38.5986 -77.7222 210° Southwest 418 481 30,000  Level Washington Center
12:36PM 38.5053 -77.8044 215° Southwest 418 481 30,000  Level Washington Center
12:37PM 38.4200 -77.9053 223° Southwest 418 481 30,000  Level Washington Center
12:38PM 38.3367 -78.0031 223° Southwest 418 481 30,000  Level Washington Center
12:39PM 38.2533 -78.0983 222° Southwest 413 475 30,000  Level Washington Center
12:40PM 38.1678 -78.1983 223° Southwest 413 475 30,000 -60 Level Washington Center
12:41PM 38.0844 -78.2983 223° Southwest 413 475 29,900 -480 Descending Washington Center
12:42PM 38.0117 -78.3803 222° Southwest 413 475 29,100 -960 Descending Washington Center
12:43PM 37.9192 -78.4900 223° Southwest 400 460 28,000 -600 Descending Washington Center
12:44PM 37.8378 -78.5842 222° Southwest 400 460 28,000  Level Washington Center
12:45PM 37.7539 -78.6781 222° Southwest 405 466 28,000 -360 Level Washington Center
12:46PM 37.6722 -78.7717 222° Southwest 405 466 27,400 -960 Descending Washington Center
12:47PM 37.5969 -78.8550 221° Southwest 400 460 26,100 240 Descending Washington Center
12:48PM 37.5131 -78.9483 221° Southwest 400 460 28,000 -1,500 Climbing Washington Center
12:49PM 37.4269 -79.0467 222° Southwest 406 467 23,200 -3,060 Descending Washington Center
12:50PM 37.3428 -79.1369 220° Southwest 406 467 22,000 -600 Descending Washington Center
12:51PM 37.2631 -79.2269 222° Southwest 406 467 22,000  Level Washington Center
12:52PM 37.1911 -79.3281 228° Southwest 406 467 22,000  Level Washington Center
12:53PM 37.1144 -79.4439 230° Southwest 401 461 22,000 -360 Level Washington Center
12:54PM 37.0464 -79.5472 230° Southwest 395 455 21,400 -1,320 Descending Washington Center
12:55PM 36.9739 -79.6503 229° Southwest 395 455 19,400 -1,980 Descending Washington Center
12:57PM 36.9021 -79.7536 229° Southwest  Level FlightAware Approximate
01:04PM 36.3334 -79.9833 180° South  Level FlightAware Approximate
01:05PM 36.2383 -79.9833 180° South  Level FlightAware Approximate
01:06PM 36.1437 -79.9754 171° South  Level FlightAware Approximate
01:07PM 36.1013 -79.9411 180° South  Level Estimated
01:08PM 36.1000 -79.9333 28° Northeast  Level FlightAware Approximate
01:09PM 36.1013 -79.9411 28° Northeast  Level Estimated
01:10PM 36.1000 -79.9333 28° Northeast  Level FlightAware Approximate
01:11PM 36.1013 -79.9411 28° Northeast  Level Estimated
01:12PM 36.1000 -79.9333 28° Northeast  Level FlightAware Approximate